Time;durP1;ratioP1;P1;durP2;ratioP2;P2;SDS_P1;SDS_P2;PMS_P1;PMS_P2;Temp;Humidity;BMP_temperature;BMP_pressure;BME280_temperature;BME280_humidity;BME280_pressure;Samples;Min_cycle;Max_cycle;Signal;HPM_P1;HPM_P2
2021/10/03 00:02:12;;;;;;;;;2.25;2.25;;;;;18.67;77.34;99341.63;5051457;28;45449;-55
2021/10/03 00:04:42;;;;;;;;;3.25;3.25;;;;;18.68;77.60;99331.78;5050847;28;45530;-55
2021/10/03 00:07:08;;;;;;;;;4.00;3.25;;;;;18.69;77.52;99344.13;5052399;28;46116;-56
2021/10/03 00:09:35;;;;;;;;;2.50;1.75;;;;;18.68;77.43;99326.44;5051589;28;45333;-57
2021/10/03 00:12:01;;;;;;;;;3.50;3.25;;;;;18.69;77.53;99315.59;5052008;28;45399;-57
2021/10/03 00:14:27;;;;;;;;;3.00;2.00;;;;;18.69;77.40;99320.94;5051726;28;45548;-57
2021/10/03 00:16:53;;;;;;;;;6.00;3.50;;;;;18.73;77.53;99323.28;5053032;28;46334;-56
2021/10/03 00:19:19;;;;;;;;;3.75;3.00;;;;;18.74;77.64;99311.59;5051801;28;45360;-57
2021/10/03 00:21:45;;;;;;;;;4.75;3.00;;;;;18.75;77.26;99316.75;5046827;28;45323;-54
2021/10/03 00:24:12;;;;;;;;;6.00;4.00;;;;;18.78;77.13;99304.88;5038842;28;45520;-56
2021/10/03 00:26:38;;;;;;;;;3.25;2.00;;;;;18.79;77.03;99294.00;5038950;28;45526;-55
2021/10/03 00:29:05;;;;;;;;;2.50;2.50;;;;;18.80;76.98;99289.50;5048854;28;45487;-56
2021/10/03 00:31:31;;;;;;;;;3.00;3.00;;;;;18.79;77.64;99286.00;5051862;28;45372;-56
2021/10/03 00:33:56;;;;;;;;;3.50;3.50;;;;;18.79;77.27;99291.34;5048014;28;45394;-55
2021/10/03 00:36:22;;;;;;;;;4.00;4.00;;;;;18.78;76.98;99289.69;5056786;28;45380;-55
2021/10/03 00:38:47;;;;;;;;;3.00;3.00;;;;;18.80;76.95;99295.69;5060986;28;45389;-54
2021/10/03 00:41:14;;;;;;;;;5.25;3.50;;;;;18.80;76.89;99303.69;5061387;28;45538;-55
2021/10/03 00:43:40;;;;;;;;;5.00;4.00;;;;;18.80;77.18;99281.50;5061623;28;45342;-56
2021/10/03 00:46:06;;;;;;;;;3.00;3.00;;;;;18.81;76.65;99281.34;5061225;28;46069;-56
2021/10/03 00:48:32;;;;;;;;;4.50;4.50;;;;;18.82;76.98;99274.16;5061422;28;45366;-55
2021/10/03 00:50:58;;;;;;;;;2.25;2.25;;;;;18.84;77.05;99270.31;5061446;28;45444;-55
2021/10/03 00:53:23;;;;;;;;;5.00;3.50;;;;;18.86;76.59;99276.28;5061334;28;45628;-56
2021/10/03 00:55:49;;;;;;;;;5.00;4.00;;;;;18.86;76.92;99268.28;5061071;28;46242;-56
2021/10/03 00:58:15;;;;;;;;;2.75;2.75;;;;;18.85;77.12;99276.47;5061336;28;45450;-56
2021/10/03 01:00:41;;;;;;;;;4.00;4.00;;;;;18.85;76.90;99277.28;5061363;28;45301;-54
2021/10/03 01:03:08;;;;;;;;;3.25;3.25;;;;;18.84;77.20;99272.97;5061524;28;44716;-55
2021/10/03 01:05:36;;;;;;;;;4.75;4.00;;;;;18.83;77.39;99267.81;5049944;28;45519;-55
2021/10/03 01:08:02;;;;;;;;;6.00;5.75;;;;;18.80;76.84;99274.34;5060817;28;45438;-55
2021/10/03 01:10:29;;;;;;;;;5.00;5.00;;;;;18.81;77.34;99267.19;5060834;28;45477;-56
2021/10/03 01:13:08;;;;;;;;;6.00;4.75;;;;;18.82;76.97;99263.50;5061271;28;45285;-56
2021/10/03 01:15:36;;;;;;;;;6.50;4.00;;;;;18.80;77.28;99253.00;5055130;28;46306;-54
2021/10/03 01:18:03;;;;;;;;;3.50;3.00;;;;;18.79;76.94;99245.16;5040820;28;45486;-56
2021/10/03 01:20:31;;;;;;;;;4.00;4.00;;;;;18.78;77.50;99238.19;5041026;28;45376;-51
2021/10/03 01:23:03;;;;;;;;;7.00;6.00;;;;;18.76;77.47;99243.69;5040763;28;45497;-54
2021/10/03 01:25:39;;;;;;;;;5.25;4.75;;;;;18.75;77.25;99244.72;5040459;28;45417;-55
2021/10/03 01:28:06;;;;;;;;;4.75;4.75;;;;;18.75;77.14;99226.03;5040562;28;45727;-55
2021/10/03 01:30:33;;;;;;;;;5.75;5.00;;;;;18.76;76.83;99232.19;5040991;28;45264;-55
2021/10/03 01:32:59;;;;;;;;;5.25;4.75;;;;;18.76;76.89;99224.19;5040699;28;45293;-56
2021/10/03 01:35:24;;;;;;;;;4.25;4.25;;;;;18.77;77.53;99225.84;5051039;28;45281;-56
2021/10/03 01:37:51;;;;;;;;;5.00;5.00;;;;;18.75;77.28;99217.22;5040616;28;45468;-55
2021/10/03 01:40:19;;;;;;;;;5.50;5.25;;;;;18.73;76.86;99208.56;5040246;28;45435;-54
2021/10/03 01:42:44;;;;;;;;;3.75;3.75;;;;;18.73;77.53;99211.22;5040388;28;45178;-55
2021/10/03 01:45:15;;;;;;;;;4.25;4.25;;;;;18.71;77.26;99198.03;5040635;28;45260;-56
2021/10/03 01:48:10;;;;;;;;;5.00;5.00;;;;;18.72;77.17;99205.03;5043892;28;45314;-56
2021/10/03 01:50:40;;;;;;;;;5.25;4.00;;;;;18.73;77.31;99203.22;5044079;28;45402;-58
2021/10/03 01:53:08;;;;;;;;;6.00;5.50;;;;;18.73;76.97;99193.38;5043986;28;45369;-58
2021/10/03 01:55:35;;;;;;;;;4.25;4.25;;;;;18.72;77.11;99193.53;5043775;28;46033;-58
2021/10/03 01:58:01;;;;;;;;;6.50;5.00;;;;;18.70;77.13;99172.38;5043819;28;45378;-58
2021/10/03 02:00:27;;;;;;;;;6.75;5.25;;;;;18.70;77.01;99172.38;5043887;28;45320;-58
2021/10/03 02:02:57;;;;;;;;;0.25;0.25;;;;;18.70;77.49;99180.38;5044210;28;45334;-58
2021/10/03 02:05:23;;;;;;;;;4.75;4.75;;;;;18.71;77.32;99170.53;5045650;28;46082;-58
2021/10/03 02:07:48;;;;;;;;;6.75;5.00;;;;;18.72;77.40;99156.19;5064010;28;45173;-58
2021/10/03 02:10:14;;;;;;;;;5.50;5.50;;;;;18.71;76.87;99154.53;5063812;28;45509;-58
2021/10/03 02:12:40;;;;;;;;;6.75;5.25;;;;;18.68;77.05;99155.75;5064323;28;45350;-58
2021/10/03 02:15:06;;;;;;;;;5.50;5.25;;;;;18.66;76.55;99136.44;5062200;28;45654;-58
2021/10/03 02:17:31;;;;;;;;;8.00;5.75;;;;;18.67;76.81;99140.75;5043826;28;45317;-58
2021/10/03 02:19:58;;;;;;;;;7.25;5.50;;;;;18.67;76.90;99125.56;5043416;28;45331;-58
2021/10/03 02:22:24;;;;;;;;;5.00;5.00;;;;;18.66;77.03;99126.59;5043746;28;45375;-58
2021/10/03 02:24:55;;;;;;;;;5.00;5.00;;;;;18.67;76.88;99122.91;5042494;28;45647;-58
2021/10/03 02:27:20;;;;;;;;;9.75;4.00;;;;;18.66;77.17;99123.09;5043478;28;45379;-58
2021/10/03 02:29:46;;;;;;;;;7.50;6.00;;;;;18.64;76.94;99117.06;5043360;28;45289;-58
2021/10/03 02:32:11;;;;;;;;;6.00;4.50;;;;;18.63;76.93;99108.25;5043672;28;45339;-58
2021/10/03 02:34:37;;;;;;;;;8.75;5.00;;;;;18.64;76.61;99098.41;5053507;28;46172;-58
2021/10/03 02:37:03;;;;;;;;;9.50;5.75;;;;;18.63;76.57;99102.91;5043489;28;45334;-58
2021/10/03 02:39:29;;;;;;;;;5.00;5.00;;;;;18.64;76.46;99111.72;5043032;28;45304;-58
2021/10/03 02:41:54;;;;;;;;;7.25;6.25;;;;;18.64;76.60;99109.91;5043517;28;45292;-58
2021/10/03 02:44:20;;;;;;;;;6.25;5.50;;;;;18.64;76.60;99104.59;5042936;28;45274;-59
2021/10/03 02:46:45;;;;;;;;;6.00;4.00;;;;;18.65;76.56;99098.25;5043263;28;45202;-58
2021/10/03 02:49:11;;;;;;;;;7.25;6.75;;;;;18.65;76.48;99094.75;5043205;28;45276;-58
2021/10/03 02:51:36;;;;;;;;;6.25;5.75;;;;;18.63;76.25;99092.22;5043465;28;45356;-57
2021/10/03 02:54:02;;;;;;;;;7.00;7.00;;;;;18.63;76.68;99086.91;5042895;28;45205;-56
2021/10/03 02:56:30;;;;;;;;;7.25;6.00;;;;;18.64;76.71;99088.59;5042646;28;45280;-57
2021/10/03 02:58:56;;;;;;;;;7.75;7.00;;;;;18.62;77.12;99082.56;5043129;28;45447;-56
2021/10/03 03:01:21;;;;;;;;;5.00;5.00;;;;;18.62;76.39;99074.56;5043036;28;45477;-56
2021/10/03 03:03:47;;;;;;;;;6.25;5.25;;;;;18.61;76.44;99056.09;5042565;28;46073;-57
2021/10/03 03:06:14;;;;;;;;;8.00;6.75;;;;;18.61;76.78;99072.94;5051295;28;45267;-57
2021/10/03 03:08:39;;;;;;;;;8.50;5.75;;;;;18.60;76.53;99068.59;5062863;28;45366;-57
2021/10/03 03:11:05;;;;;;;;;4.75;4.75;;;;;18.60;76.62;99070.44;5063163;28;45244;-56
2021/10/03 03:13:31;;;;;;;;;9.25;5.50;;;;;18.60;76.29;99065.13;5062794;28;46014;-55
2021/10/03 03:15:57;;;;;;;;;6.25;5.00;;;;;18.59;76.34;99074.13;5054677;28;45177;-56
2021/10/03 03:18:22;;;;;;;;;6.00;5.50;;;;;18.58;76.53;99059.97;5042823;28;45256;-57
2021/10/03 03:20:48;;;;;;;;;6.00;6.00;;;;;18.56;76.17;99048.63;5042938;28;45476;-56
2021/10/03 03:23:14;;;;;;;;;7.75;6.75;;;;;18.58;75.98;99062.63;5042113;28;45451;-56
2021/10/03 03:25:39;;;;;;;;;5.50;5.50;;;;;18.58;76.03;99037.81;5042562;28;45316;-57
2021/10/03 03:28:09;;;;;;;;;5.75;5.50;;;;;18.58;75.99;99043.97;5042592;28;45410;-57
2021/10/03 03:30:36;;;;;;;;;6.75;6.00;;;;;18.58;75.92;99035.97;5042901;28;45244;-53
2021/10/03 03:33:02;;;;;;;;;10.00;8.75;;;;;18.58;75.93;99024.47;5042079;28;45454;-58
2021/10/03 03:35:28;;;;;;;;;6.00;5.00;;;;;18.59;76.19;99039.47;5052974;28;45361;-56
2021/10/03 03:37:55;;;;;;;;;6.50;5.00;;;;;18.59;76.11;99028.78;5042127;28;45209;-57
2021/10/03 03:40:21;;;;;;;;;6.25;5.50;;;;;18.59;75.50;99031.47;5042575;28;45365;-57
2021/10/03 03:42:47;;;;;;;;;7.50;6.00;;;;;18.59;75.65;99031.47;5042050;28;45312;-56
2021/10/03 03:45:14;;;;;;;;;6.00;5.25;;;;;18.59;76.01;99032.28;5042329;28;45380;-57
2021/10/03 03:47:40;;;;;;;;;5.00;5.00;;;;;18.58;75.76;99027.97;5042166;28;45455;-57
2021/10/03 03:50:09;;;;;;;;;5.75;5.75;;;;;18.61;75.25;99035.59;5042481;28;45212;-57
2021/10/03 03:52:34;;;;;;;;;7.00;6.00;;;;;18.61;75.91;99032.09;5041752;28;46089;-57
2021/10/03 03:55:00;;;;;;;;;6.75;5.50;;;;;18.61;75.53;99037.44;5041815;28;45252;-57
2021/10/03 03:57:25;;;;;;;;;5.25;5.25;;;;;18.60;75.52;99047.28;5042082;28;45296;-57
2021/10/03 03:59:50;;;;;;;;;7.50;7.00;;;;;18.61;75.80;99038.25;5042270;28;45391;-57
2021/10/03 04:02:17;;;;;;;;;5.75;5.75;;;;;18.60;75.73;99036.59;5041828;28;45323;-56
2021/10/03 04:04:43;;;;;;;;;7.50;5.75;;;;;18.60;75.29;99028.59;5041876;28;45373;-56
2021/10/03 04:07:08;;;;;;;;;6.00;6.00;;;;;18.60;75.67;99049.94;5057727;28;45562;-57
2021/10/03 04:09:34;;;;;;;;;8.75;8.00;;;;;18.58;75.16;99046.63;5061201;28;45343;-57
2021/10/03 04:12:00;;;;;;;;;6.50;5.75;;;;;18.59;75.71;99052.78;5061684;28;45216;-57
2021/10/03 04:14:26;;;;;;;;;7.75;5.25;;;;;18.59;75.61;99042.94;5062112;28;45224;-57
2021/10/03 04:16:51;;;;;;;;;5.00;5.00;;;;;18.58;75.65;99051.16;5045765;28;45280;-58
2021/10/03 04:19:17;;;;;;;;;7.00;7.00;;;;;18.57;75.85;99047.66;5042145;28;45186;-57
2021/10/03 04:21:42;;;;;;;;;8.00;7.00;;;;;18.56;75.97;99050.47;5041536;28;45967;-58
2021/10/03 04:24:08;;;;;;;;;6.00;5.00;;;;;18.54;75.91;99045.34;5041056;28;45434;-57
2021/10/03 04:26:33;;;;;;;;;7.00;6.00;;;;;18.52;76.06;99050.03;5041516;28;45253;-57
2021/10/03 04:28:59;;;;;;;;;7.50;7.00;;;;;18.52;75.87;99052.69;5041870;28;45206;-57
2021/10/03 04:31:24;;;;;;;;;8.25;6.75;;;;;18.51;75.74;99045.72;5041310;28;45773;-57
2021/10/03 04:33:50;;;;;;;;;6.00;6.00;;;;;18.52;76.00;99062.53;5047506;28;45393;-57
2021/10/03 04:36:15;;;;;;;;;7.25;7.00;;;;;18.50;76.50;99064.56;5046275;28;45252;-57
2021/10/03 04:38:41;;;;;;;;;9.00;6.00;;;;;18.49;76.41;99062.91;5041501;28;45408;-57
2021/10/03 04:41:07;;;;;;;;;8.00;6.00;;;;;18.47;76.67;99049.75;5041047;28;45297;-57
2021/10/03 04:43:33;;;;;;;;;9.00;6.00;;;;;18.45;76.73;99045.59;5041467;28;45261;-57
2021/10/03 04:45:59;;;;;;;;;6.25;5.00;;;;;18.42;76.12;99047.63;5041164;28;45455;-57
2021/10/03 04:48:24;;;;;;;;;8.00;6.25;;;;;18.43;76.71;99045.81;5041523;28;45392;-57
2021/10/03 04:50:50;;;;;;;;;9.50;7.00;;;;;18.40;76.92;99041.63;5041057;28;46156;-57
2021/10/03 04:53:16;;;;;;;;;6.00;6.00;;;;;18.40;76.92;99048.81;5041285;28;45536;-57
2021/10/03 04:55:41;;;;;;;;;7.00;7.00;;;;;18.39;76.71;99052.50;5041075;28;45221;-57
2021/10/03 04:58:07;;;;;;;;;9.00;8.50;;;;;18.39;76.99;99049.81;5041381;28;45337;-57
2021/10/03 05:00:32;;;;;;;;;8.00;7.00;;;;;18.40;76.79;99051.47;5040958;28;45261;-57
2021/10/03 05:02:58;;;;;;;;;11.00;7.75;;;;;18.40;76.42;99024.81;5040894;28;45234;-57
2021/10/03 05:05:23;;;;;;;;;9.00;6.00;;;;;18.38;77.14;99075.66;5042434;28;45288;-56
2021/10/03 05:07:49;;;;;;;;;6.75;6.75;;;;;18.35;77.21;99100.03;5061325;28;45210;-57
2021/10/03 05:10:14;;;;;;;;;8.00;8.00;;;;;18.33;77.25;99056.72;5060918;28;45484;-56
2021/10/03 05:12:40;;;;;;;;;8.00;7.50;;;;;18.35;77.84;99075.22;5061360;28;45219;-57
2021/10/03 05:15:06;;;;;;;;;10.00;7.25;;;;;18.32;77.46;99097.69;5059342;28;45362;-56
2021/10/03 05:17:32;;;;;;;;;8.25;5.75;;;;;18.28;77.58;99108.94;5023561;28;45441;-56
2021/10/03 05:19:58;;;;;;;;;4.00;1.50;;;;;18.20;76.96;99109.00;5040493;28;45864;-57
2021/10/03 05:22:24;;;;;;;;;4.25;0.25;;;;;18.08;75.95;99129.91;5040952;28;45416;-57
2021/10/03 05:24:51;;;;;;;;;1.25;0.25;;;;;17.97;75.54;99131.16;5040121;28;45321;-57
2021/10/03 05:27:17;;;;;;;;;0.00;0.00;;;;;17.80;75.25;99109.13;5040892;28;45253;-56
2021/10/03 05:29:42;;;;;;;;;0.00;0.00;;;;;17.67;75.33;99110.69;5040477;28;45450;-57
2021/10/03 05:32:08;;;;;;;;;0.00;0.00;;;;;17.52;75.40;99122.06;5040863;28;45237;-57
2021/10/03 05:34:34;;;;;;;;;0.00;0.00;;;;;17.37;75.79;99126.47;5051396;28;45285;-57
2021/10/03 05:36:59;;;;;;;;;0.00;0.00;;;;;17.27;76.20;99120.53;5041051;28;45583;-57
2021/10/03 05:39:25;;;;;;;;;0.00;0.00;;;;;17.21;76.27;99138.03;5040454;28;45420;-56
2021/10/03 05:41:50;;;;;;;;;0.75;0.00;;;;;17.18;76.51;99138.38;5040658;28;45251;-56
2021/10/03 05:44:16;;;;;;;;;0.00;0.00;;;;;17.19;76.27;99149.84;5040762;28;45235;-57
2021/10/03 05:46:41;;;;;;;;;0.75;0.00;;;;;17.17;76.50;99160.66;5040965;28;45261;-57
2021/10/03 05:49:07;;;;;;;;;0.00;0.00;;;;;17.14;76.38;99162.81;5040440;28;45769;-58
2021/10/03 05:51:35;;;;;;;;;0.00;0.00;;;;;17.08;76.24;99185.66;5040599;28;45324;-58
2021/10/03 05:54:01;;;;;;;;;0.00;0.00;;;;;17.06;76.24;99192.94;5040310;28;45178;-55
2021/10/03 05:56:26;;;;;;;;;0.00;0.00;;;;;17.02;76.90;99188.97;5040463;28;46407;-57
2021/10/03 05:58:52;;;;;;;;;0.00;0.00;;;;;16.97;76.84;99191.31;5040160;28;45293;-57
2021/10/03 06:01:17;;;;;;;;;1.00;0.00;;;;;16.93;76.63;99200.63;5040599;28;45209;-56
2021/10/03 06:03:43;;;;;;;;;0.00;0.00;;;;;16.94;76.92;99221.75;5040441;28;45311;-57
2021/10/03 06:06:08;;;;;;;;;0.00;0.00;;;;;16.94;77.04;99226.25;5048203;28;45175;-57
2021/10/03 06:08:34;;;;;;;;;0.00;0.00;;;;;16.93;76.85;99208.63;5060041;28;45294;-57
2021/10/03 06:10:59;;;;;;;;;0.00;0.00;;;;;16.93;76.79;99188.16;5060478;28;45433;-56
2021/10/03 06:13:25;;;;;;;;;1.00;1.00;;;;;16.98;76.86;99209.78;5060469;28;45276;-56
2021/10/03 06:15:50;;;;;;;;;0.00;0.00;;;;;17.01;76.53;99187.31;5052758;28;45567;-57
2021/10/03 06:18:16;;;;;;;;;0.00;0.00;;;;;17.03;76.50;99201.28;5040056;28;45586;-58
2021/10/03 06:20:42;;;;;;;;;0.00;0.00;;;;;17.05;76.59;99219.72;5040216;28;45392;-55
2021/10/03 06:23:09;;;;;;;;;0.00;0.00;;;;;17.05;76.62;99230.38;5039833;28;45392;-55
2021/10/03 06:25:34;;;;;;;;;0.00;0.00;;;;;17.03;76.63;99212.75;5039955;28;45520;-56
2021/10/03 06:28:00;;;;;;;;;0.00;0.00;;;;;17.02;76.50;99205.78;5039728;28;45565;-57
2021/10/03 06:30:26;;;;;;;;;0.00;0.00;;;;;17.02;76.49;99213.75;5040041;28;45435;-56
2021/10/03 06:32:54;;;;;;;;;0.00;0.00;;;;;17.05;76.61;99223.22;5045666;28;45232;-56
2021/10/03 06:35:21;;;;;;;;;0.00;0.00;;;;;17.07;76.68;99231.06;5052654;28;45518;-56
2021/10/03 06:37:46;;;;;;;;;0.00;0.00;;;;;17.10;76.49;99220.06;5048281;28;45475;-56
2021/10/03 06:40:12;;;;;;;;;0.00;0.00;;;;;17.11;76.40;99197.75;5056376;28;45308;-57
2021/10/03 06:42:37;;;;;;;;;0.00;0.00;;;;;17.08;76.56;99193.63;5056577;28;45374;-57
2021/10/03 06:45:03;;;;;;;;;1.00;0.00;;;;;17.06;76.19;99216.06;5050178;28;45472;-55
2021/10/03 06:47:29;;;;;;;;;0.00;0.00;;;;;17.02;76.39;99219.06;5049248;28;45383;-56
2021/10/03 06:49:54;;;;;;;;;0.00;0.00;;;;;17.03;76.75;99225.22;5062295;28;45284;-55
2021/10/03 06:52:20;;;;;;;;;0.00;0.00;;;;;17.03;76.97;99204.75;5049877;28;45498;-57
2021/10/03 06:54:46;;;;;;;;;0.00;0.00;;;;;16.99;76.54;99157.41;5056231;28;45290;-57
2021/10/03 06:57:12;;;;;;;;;0.00;0.00;;;;;16.97;76.72;99178.84;5056230;28;45308;-57
2021/10/03 06:59:37;;;;;;;;;0.00;0.00;;;;;16.98;77.02;99183.19;5054761;28;46343;-56
2021/10/03 07:02:10;;;;;;;;;0.00;0.00;;;;;17.01;77.03;99212.09;5049600;28;45360;-56
2021/10/03 07:04:35;;;;;;;;;0.00;0.00;;;;;17.03;76.91;99220.72;5055595;28;45311;-57
2021/10/03 07:07:01;;;;;;;;;0.00;0.00;;;;;17.08;77.10;99224.72;5056878;28;45516;-57
2021/10/03 07:09:26;;;;;;;;;0.00;0.00;;;;;17.11;77.57;99240.34;5049752;28;45170;-57
2021/10/03 07:11:54;;;;;;;;;0.00;0.00;;;;;17.15;77.49;99244.34;5056042;28;45230;-58
2021/10/03 07:14:20;;;;;;;;;0.00;0.00;;;;;17.18;77.06;99258.13;5055936;28;45402;-58
2021/10/03 07:16:46;;;;;;;;;0.00;0.00;;;;;17.22;76.89;99255.94;5055855;28;46806;-58
2021/10/03 07:19:11;;;;;;;;;0.00;0.00;;;;;17.25;76.81;99259.09;5042473;28;45339;-58
2021/10/03 07:21:37;;;;;;;;;1.00;0.00;;;;;17.27;76.79;99259.75;5056825;28;45394;-58
2021/10/03 07:24:02;;;;;;;;;1.75;0.00;;;;;17.30;77.01;99270.09;5044097;28;45292;-58
2021/10/03 07:26:28;;;;;;;;;0.00;0.00;;;;;17.33;76.78;99260.09;5042494;28;45399;-58
2021/10/03 07:28:53;;;;;;;;;0.00;0.00;;;;;17.35;76.72;99258.06;5042699;28;45327;-56
2021/10/03 07:31:20;;;;;;;;;1.00;0.75;;;;;17.34;76.94;99256.41;5042755;28;45332;-56
2021/10/03 07:33:47;;;;;;;;;0.25;0.25;;;;;17.36;77.12;99263.22;5047861;28;45417;-58
2021/10/03 07:36:16;;;;;;;;;4.00;1.00;;;;;17.39;77.23;99257.59;5062113;28;45400;-51
2021/10/03 07:38:42;;;;;;;;;1.00;1.00;;;;;17.34;76.72;99245.78;5049169;28;45405;-56
2021/10/03 07:41:08;;;;;;;;;1.00;1.00;;;;;17.41;76.42;99260.06;5050677;28;45411;-56
2021/10/03 07:43:33;;;;;;;;;2.75;1.00;;;;;17.40;76.84;99264.56;5062412;28;45362;-56
2021/10/03 07:45:59;;;;;;;;;0.00;0.00;;;;;17.40;76.81;99269.06;5062291;28;47307;-55
2021/10/03 07:48:24;;;;;;;;;0.25;0.00;;;;;17.35;77.11;99269.56;5062159;28;45336;-55
2021/10/03 07:50:50;;;;;;;;;0.00;0.00;;;;;17.38;77.26;99276.34;5062431;28;45160;-55
2021/10/03 07:53:15;;;;;;;;;1.00;1.00;;;;;17.41;77.46;99292.00;5062048;28;45269;-56
2021/10/03 07:55:41;;;;;;;;;3.00;1.25;;;;;17.43;77.05;99285.50;5061890;28;45291;-54
2021/10/03 07:58:07;;;;;;;;;4.00;2.00;;;;;17.46;77.25;99292.34;5061752;28;45239;-56
2021/10/03 08:00:34;;;;;;;;;1.25;1.25;;;;;17.46;76.99;99298.50;5053493;28;45469;-58
2021/10/03 08:03:00;;;;;;;;;1.00;1.00;;;;;17.48;77.20;99295.66;5063418;28;45463;-58
2021/10/03 08:05:26;;;;;;;;;2.00;2.00;;;;;17.47;77.15;99305.47;5044363;28;45965;-67
2021/10/03 08:07:52;;;;;;;;;1.25;1.00;;;;;17.46;77.11;99301.16;5052897;28;46535;-58
2021/10/03 08:10:18;;;;;;;;;2.50;1.00;;;;;17.47;77.08;99308.13;5050335;28;45301;-57
2021/10/03 08:12:43;;;;;;;;;1.25;1.00;;;;;17.47;76.94;99312.63;5051556;28;45404;-62
2021/10/03 08:15:10;;;;;;;;;4.25;2.50;;;;;17.49;76.81;99315.94;5051633;28;45871;-57
2021/10/03 08:17:35;;;;;;;;;3.00;1.75;;;;;17.50;77.01;99313.13;5051667;28;45312;-57
2021/10/03 08:20:01;;;;;;;;;0.25;0.25;;;;;17.50;77.01;99318.44;5051565;28;45611;-57
2021/10/03 08:22:27;;;;;;;;;1.00;1.00;;;;;17.48;77.09;99331.09;5041493;28;46259;-57
2021/10/03 08:24:52;;;;;;;;;1.75;1.75;;;;;17.49;77.06;99329.25;5050674;28;45926;-57
2021/10/03 08:27:18;;;;;;;;;1.00;1.00;;;;;17.52;77.21;99342.22;5055098;28;45304;-57
2021/10/03 08:29:43;;;;;;;;;0.25;0.00;;;;;17.54;77.53;99341.06;5058666;28;45181;-57
2021/10/03 08:32:09;;;;;;;;;0.50;0.50;;;;;17.57;76.87;99324.75;5052233;28;45378;-57
2021/10/03 08:34:34;;;;;;;;;1.75;1.75;;;;;17.60;77.40;99323.56;5049021;28;45502;-57
2021/10/03 08:37:00;;;;;;;;;0.00;0.00;;;;;17.62;77.41;99331.41;5045818;28;45573;-57
2021/10/03 08:39:25;;;;;;;;;12.50;10.25;;;;;17.60;77.51;99328.88;5038878;28;45548;-60
2021/10/03 08:41:52;;;;;;;;;3.75;3.75;;;;;17.64;77.24;99326.75;5049694;28;45484;-58
2021/10/03 08:44:18;;;;;;;;;2.00;1.00;;;;;17.66;77.21;99338.88;5051193;28;45772;-63
2021/10/03 08:46:45;;;;;;;;;1.25;0.50;;;;;17.70;76.97;99339.38;5052389;28;45300;-66
2021/10/03 08:49:10;;;;;;;;;0.00;0.00;;;;;17.74;77.23;99349.53;5052733;28;45311;-58
2021/10/03 08:51:36;;;;;;;;;1.00;1.00;;;;;17.76;77.36;99365.34;5049755;28;46370;-58
2021/10/03 08:54:01;;;;;;;;;3.75;2.00;;;;;17.80;77.12;99375.50;5048853;28;45809;-58
2021/10/03 08:56:27;;;;;;;;;2.00;2.00;;;;;17.80;77.36;99375.50;5053955;28;45233;-57
2021/10/03 08:58:52;;;;;;;;;1.00;1.00;;;;;17.82;77.25;99388.63;5049949;28;45369;-58
2021/10/03 09:01:20;;;;;;;;;2.50;2.50;;;;;17.84;77.44;99399.94;5052790;28;45328;-58
2021/10/03 09:03:46;;;;;;;;;1.50;1.50;;;;;17.84;77.67;99392.78;5050125;28;45485;-57
2021/10/03 09:06:11;;;;;;;;;3.00;2.00;;;;;17.85;77.36;99399.78;5049726;28;45544;-58
2021/10/03 09:08:49;;;;;;;;;2.00;2.00;;;;;17.84;77.55;99394.63;5052136;28;45514;-59
2021/10/03 09:11:16;;;;;;;;;2.00;2.00;;;;;17.81;77.81;99406.44;5048887;28;45250;-58
2021/10/03 09:13:51;;;;;;;;;2.75;2.00;;;;;17.84;77.84;99402.59;5053466;28;46115;-58
2021/10/03 09:16:32;;;;;;;;;2.75;2.00;;;;;17.85;77.96;99405.13;5048839;28;45484;-58
2021/10/03 09:19:11;;;;;;;;;4.50;3.00;;;;;17.88;77.79;99409.28;5052243;28;45431;-59
2021/10/03 09:21:40;;;;;;;;;6.00;4.00;;;;;17.91;77.73;99408.09;5051558;28;45326;-58
2021/10/03 09:24:11;;;;;;;;;2.00;1.50;;;;;17.94;77.87;99419.25;5048189;28;45459;-58
2021/10/03 09:26:39;;;;;;;;;2.00;0.50;;;;;17.95;77.96;99417.41;5051118;28;45454;-58
2021/10/03 09:29:28;;;;;;;;;2.00;1.00;;;;;17.97;77.50;99426.91;5050619;28;46254;-58
2021/10/03 09:32:11;;;;;;;;;3.00;1.00;;;;;17.99;77.58;99419.56;5051399;28;45534;-58
2021/10/03 09:34:43;;;;;;;;;1.00;0.50;;;;;18.01;77.57;99420.25;5049765;28;45590;-58
2021/10/03 09:37:29;;;;;;;;;2.50;0.00;;;;;17.98;78.09;99452.53;5049802;28;45600;-58
2021/10/03 09:40:07;;;;;;;;;1.00;0.75;;;;;17.95;77.45;99492.03;5050667;28;45508;-58
2021/10/03 09:42:34;;;;;;;;;1.00;0.00;;;;;17.69;76.12;99516.13;5048953;28;45637;-58
2021/10/03 09:45:05;;;;;;;;;0.00;0.00;;;;;17.40;74.00;99530.75;5050163;28;45702;-57
2021/10/03 09:47:30;;;;;;;;;0.00;0.00;;;;;17.05;73.10;99554.94;5051118;28;45399;-57
2021/10/03 09:49:57;;;;;;;;;0.00;0.00;;;;;16.68;72.53;99578.22;5048321;28;45291;-58
2021/10/03 09:52:24;;;;;;;;;0.00;0.00;;;;;16.39;73.22;99615.75;5045998;28;45461;-57
2021/10/03 09:54:51;;;;;;;;;2.00;1.25;;;;;16.19;73.17;99643.50;5052836;28;45542;-59
2021/10/03 09:57:20;;;;;;;;;5.25;5.25;;;;;16.03;72.87;99646.84;5049949;28;45394;-59
2021/10/03 09:59:46;;;;;;;;;0.00;0.00;;;;;15.90;73.19;99660.53;5048431;28;45492;-59
2021/10/03 10:02:15;;;;;;;;;0.00;0.00;;;;;15.78;73.37;99655.56;5050814;28;45309;-59
2021/10/03 10:04:43;;;;;;;;;0.00;0.00;;;;;15.70;73.58;99658.97;5048671;28;46090;-60
2021/10/03 10:07:09;;;;;;;;;0.00;0.00;;;;;15.58;73.71;99681.38;5052103;28;45253;-59
2021/10/03 10:09:35;;;;;;;;;1.00;0.00;;;;;15.50;74.06;99697.22;5054166;28;45229;-59
2021/10/03 10:12:12;;;;;;;;;0.00;0.00;;;;;15.44;73.37;99708.41;5053620;28;45463;-59
2021/10/03 10:14:43;;;;;;;;;0.00;0.00;;;;;15.38;74.25;99722.28;5052770;28;45344;-59
2021/10/03 10:17:35;;;;;;;;;0.00;0.00;;;;;15.34;73.90;99780.94;5052927;28;45307;-56
2021/10/03 10:20:24;;;;;;;;;0.00;0.00;;;;;15.32;73.98;99768.78;5054184;28;45471;-56
2021/10/03 10:23:04;;;;;;;;;0.00;0.00;;;;;15.33;73.89;99779.28;5051047;28;45307;-56
2021/10/03 10:25:44;;;;;;;;;0.00;0.00;;;;;15.35;73.92;99789.75;5014003;28;45556;-56
2021/10/03 10:28:12;;;;;;;;;0.00;0.00;;;;;15.35;73.48;99787.94;5011625;28;45434;-56
2021/10/03 10:31:14;;;;;;;;;0.00;0.00;;;;;15.38;73.80;99808.03;5008820;28;45829;-56
2021/10/03 10:33:57;;;;;;;;;0.00;0.00;;;;;15.43;74.07;99826.19;5007046;28;45742;-57
2021/10/03 10:36:29;;;;;;;;;0.00;0.00;;;;;15.44;74.21;99843.78;5010596;28;45371;-57
2021/10/03 10:39:06;;;;;;;;;0.00;0.00;;;;;15.38;73.64;99821.28;5012193;28;45478;-56
2021/10/03 10:41:43;;;;;;;;;0.00;0.00;;;;;15.39;73.76;99822.13;5017859;28;45318;-51
2021/10/03 10:44:25;;;;;;;;;0.00;0.00;;;;;15.38;73.62;99831.06;5019848;28;45351;-53
2021/10/03 10:46:57;;;;;;;;;0.00;0.00;;;;;15.39;73.59;99859.28;5011113;28;45471;-56
2021/10/03 10:49:38;;;;;;;;;0.00;0.00;;;;;15.38;73.16;99865.56;5013608;28;45338;-56
2021/10/03 10:52:19;;;;;;;;;0.00;0.00;;;;;15.41;73.43;99871.44;5008344;28;45440;-57
2021/10/03 10:54:59;;;;;;;;;0.00;0.00;;;;;15.47;73.44;99909.81;5014282;28;46528;-57
2021/10/03 10:57:47;;;;;;;;;0.00;0.00;;;;;15.51;73.50;99921.84;5014741;28;45410;-53
2021/10/03 11:00:22;;;;;;;;;0.50;0.00;;;;;15.53;73.37;99926.03;5007810;28;45667;-56
2021/10/03 11:02:49;;;;;;;;;0.00;0.00;;;;;15.56;73.63;99931.06;5004814;28;45395;-55
2021/10/03 11:05:48;;;;;;;;;0.00;0.00;;;;;15.66;73.71;99933.72;5015279;28;45227;-55
2021/10/03 11:08:16;;;;;;;;;0.00;0.00;;;;;15.80;73.61;99919.13;5013183;28;47916;-57
2021/10/03 11:10:57;;;;;;;;;0.00;0.00;;;;;15.89;72.71;99918.28;5007135;28;45399;-55
2021/10/03 11:13:38;;;;;;;;;0.00;0.00;;;;;15.92;72.07;99920.66;5015529;28;45435;-56
2021/10/03 11:16:48;;;;;;;;;0.00;0.00;;;;;15.95;72.00;99923.00;5015827;28;45322;-56
2021/10/03 11:19:22;;;;;;;;;1.00;0.00;;;;;16.04;71.62;99937.25;4980804;28;45328;-57
2021/10/03 11:21:53;;;;;;;;;3.00;1.25;;;;;16.17;71.41;99951.03;5002733;28;45520;-55
2021/10/03 11:24:28;;;;;;;;;0.00;0.00;;;;;16.26;70.89;99966.09;5031840;28;45324;-57
2021/10/03 11:27:01;;;;;;;;;0.00;0.00;;;;;16.32;70.44;99980.63;5055447;28;45459;-56
2021/10/03 11:29:29;;;;;;;;;0.00;0.00;;;;;16.38;71.09;99991.53;5052678;28;45301;-57
2021/10/03 11:31:58;;;;;;;;;0.00;0.00;;;;;16.51;70.83;100017.78;5053480;28;45335;-55
2021/10/03 11:34:25;;;;;;;;;0.75;0.00;;;;;16.57;69.98;100021.66;5052536;28;45201;-59
2021/10/03 11:36:51;;;;;;;;;0.00;0.00;;;;;16.56;69.81;100023.47;5050806;28;45347;-56
2021/10/03 11:39:17;;;;;;;;;0.00;0.00;;;;;16.61;69.02;100031.88;5056471;28;45372;-55